Time;durP1;ratioP1;P1;durP2;ratioP2;P2;SDS_P1;SDS_P2;PMS_P1;PMS_P2;Temp;Humidity;BMP_temperature;BMP_pressure;BME280_temperature;BME280_humidity;BME280_pressure;Samples;Min_cycle;Max_cycle;Signal;HPM_P1;HPM_P2
2022/05/03 00:00:11;;;;;;;2.78;0.93;;;;;;;;;;4972210;28;20054;-59
2022/05/03 00:02:45;;;;;;;1.85;0.98;;;;;;;;;;4968221;28;20051;-59
2022/05/03 00:05:16;;;;;;;2.40;1.20;;;;;;;;;;4963794;28;20055;-58
2022/05/03 00:07:44;;;;;;;2.45;1.10;;;;;;;;;;4984585;28;20054;-59
2022/05/03 00:10:13;;;;;;;2.03;1.10;;;;;;;;;;4968469;28;20054;-58
2022/05/03 00:12:41;;;;;;;2.38;1.10;;;;;;;;;;4987684;28;20105;-58
2022/05/03 00:15:08;;;;;;;1.83;1.10;;;;;;;;;;4981117;28;20100;-58
2022/05/03 00:17:35;;;;;;;1.58;1.02;;;;;;;;;;4973718;28;20093;-59
2022/05/03 00:20:03;;;;;;;1.90;0.98;;;;;;;;;;4974965;28;20077;-59
2022/05/03 00:22:32;;;;;;;2.38;1.10;;;;;;;;;;4987300;28;20054;-58
2022/05/03 00:24:59;;;;;;;1.58;0.93;;;;;;;;;;4987346;28;20071;-60
2022/05/03 00:27:26;;;;;;;2.15;1.20;;;;;;;;;;4962397;28;20106;-59
2022/05/03 00:29:52;;;;;;;1.52;0.90;;;;;;;;;;4971849;28;20108;-60
2022/05/03 00:32:20;;;;;;;3.20;1.23;;;;;;;;;;4946782;28;20055;-59
2022/05/03 00:34:48;;;;;;;2.05;1.02;;;;;;;;;;4963788;28;20057;-59
2022/05/03 00:37:16;;;;;;;1.92;1.17;;;;;;;;;;4962052;28;20057;-58
2022/05/03 00:39:42;;;;;;;2.28;1.10;;;;;;;;;;4984144;28;20129;-59
2022/05/03 00:42:14;;;;;;;2.03;1.13;;;;;;;;;;4961564;28;20051;-58
2022/05/03 00:44:58;;;;;;;1.65;0.98;;;;;;;;;;4984706;28;20046;-59
2022/05/03 00:47:32;;;;;;;1.50;0.80;;;;;;;;;;4964161;28;20050;-59
2022/05/03 00:50:03;;;;;;;5.85;1.30;;;;;;;;;;4971789;28;20057;-59
2022/05/03 00:52:37;;;;;;;2.03;1.00;;;;;;;;;;4997866;28;20046;-58
2022/05/03 00:55:13;;;;;;;2.15;1.00;;;;;;;;;;4970390;28;20082;-58
2022/05/03 00:57:46;;;;;;;1.08;0.90;;;;;;;;;;4997572;28;20070;-59
2022/05/03 01:00:13;;;;;;;1.52;1.00;;;;;;;;;;5003612;28;20065;-59
2022/05/03 01:02:56;;;;;;;3.35;1.00;;;;;;;;;;4965065;28;20055;-59
2022/05/03 01:05:26;;;;;;;1.58;1.00;;;;;;;;;;4979606;28;20062;-59
2022/05/03 01:08:00;;;;;;;4.35;1.00;;;;;;;;;;4980568;28;20055;-59
2022/05/03 01:10:32;;;;;;;1.60;0.88;;;;;;;;;;4974043;28;20059;-59
2022/05/03 01:13:02;;;;;;;1.95;0.93;;;;;;;;;;4973221;28;20042;-59
2022/05/03 01:15:31;;;;;;;1.48;0.98;;;;;;;;;;4978908;28;20046;-59
2022/05/03 01:17:58;;;;;;;;;;;;;;;;;;4965946;28;20052;-59
2022/05/03 01:20:30;;;;;;;1.83;0.75;;;;;;;;;;4970953;28;20017;-58
2022/05/03 01:23:11;;;;;;;1.27;0.90;;;;;;;;;;4972369;28;20065;-59
2022/05/03 01:25:51;;;;;;;3.47;1.60;;;;;;;;;;4970659;28;20125;-58
2022/05/03 01:28:23;;;;;;;4.50;1.30;;;;;;;;;;4965094;28;20058;-59
2022/05/03 01:30:52;;;;;;;2.20;1.10;;;;;;;;;;4971723;28;20058;-58
2022/05/03 01:33:20;;;;;;;3.65;1.30;;;;;;;;;;4963568;28;20055;-58
2022/05/03 01:35:48;;;;;;;4.28;1.25;;;;;;;;;;4987134;28;20046;-59
2022/05/03 01:38:29;;;;;;;1.65;1.00;;;;;;;;;;4978212;28;20051;-59
2022/05/03 01:41:04;;;;;;;1.92;1.15;;;;;;;;;;4952055;28;20122;-59
2022/05/03 01:43:38;;;;;;;2.13;1.00;;;;;;;;;;4965960;28;20074;-58
2022/05/03 01:46:08;;;;;;;4.45;1.20;;;;;;;;;;4986212;28;20095;-58
2022/05/03 01:51:39;;;;;;;2.00;1.08;;;;;;;;;;5005563;28;20181;-59
2022/05/03 01:54:15;;;;;;;1.58;1.00;;;;;;;;;;4971947;28;20123;-59
2022/05/03 01:56:47;;;;;;;3.25;1.40;;;;;;;;;;4969495;28;20051;-59
2022/05/03 01:59:21;;;;;;;2.03;1.00;;;;;;;;;;4964499;28;20065;-58
2022/05/03 02:01:53;;;;;;;2.53;1.17;;;;;;;;;;4983590;28;20058;-58
2022/05/03 02:04:37;;;;;;;2.95;1.33;;;;;;;;;;4974923;28;20093;-58
2022/05/03 02:07:06;;;;;;;2.13;1.08;;;;;;;;;;4988834;28;20108;-58
2022/05/03 02:09:41;;;;;;;2.58;1.40;;;;;;;;;;4995035;28;20144;-59
2022/05/03 02:12:09;;;;;;;2.90;1.30;;;;;;;;;;4987579;28;20050;-58
2022/05/03 02:14:45;;;;;;;1.27;0.90;;;;;;;;;;4989065;28;20078;-58
2022/05/03 02:17:20;;;;;;;2.70;1.10;;;;;;;;;;4961465;28;20130;-58
2022/05/03 02:19:58;;;;;;;2.35;1.10;;;;;;;;;;4984942;28;20058;-58
2022/05/03 02:22:36;;;;;;;4.80;1.23;;;;;;;;;;4959538;28;20086;-58
2022/05/03 02:25:03;;;;;;;3.77;1.20;;;;;;;;;;4970268;28;20074;-59
2022/05/03 02:27:32;;;;;;;3.53;1.47;;;;;;;;;;4961182;28;20063;-58
2022/05/03 02:29:59;;;;;;;2.00;1.00;;;;;;;;;;4970840;28;20054;-59
2022/05/03 02:32:29;;;;;;;5.80;1.30;;;;;;;;;;4979536;28;20058;-59
2022/05/03 02:35:01;;;;;;;3.30;1.30;;;;;;;;;;4985950;28;20060;-59
2022/05/03 02:37:33;;;;;;;2.05;1.10;;;;;;;;;;4978431;28;20051;-58
2022/05/03 02:40:00;;;;;;;2.65;1.30;;;;;;;;;;4958733;28;20058;-58
2022/05/03 02:42:36;;;;;;;2.40;1.48;;;;;;;;;;4970089;28;20050;-58
2022/05/03 02:45:03;;;;;;;2.15;1.27;;;;;;;;;;4961817;28;20042;-58
2022/05/03 02:47:35;;;;;;;2.40;1.20;;;;;;;;;;4970886;28;20050;-59
2022/05/03 02:50:06;;;;;;;2.78;1.35;;;;;;;;;;4973684;28;20050;-58
2022/05/03 02:52:41;;;;;;;2.38;1.23;;;;;;;;;;4986700;28;20140;-58
2022/05/03 02:55:14;;;;;;;2.47;1.20;;;;;;;;;;4987952;28;20051;-58
2022/05/03 02:57:47;;;;;;;4.45;1.80;;;;;;;;;;4976303;28;20159;-58
2022/05/03 03:03:17;;;;;;;2.92;1.58;;;;;;;;;;4953115;28;20158;-58
2022/05/03 03:05:50;;;;;;;5.78;2.30;;;;;;;;;;4968669;28;20059;-59
2022/05/03 03:08:19;;;;;;;2.80;1.50;;;;;;;;;;4957348;28;20051;-58
2022/05/03 03:10:52;;;;;;;3.00;1.30;;;;;;;;;;4964239;28;20055;-58
2022/05/03 03:13:26;;;;;;;3.05;1.40;;;;;;;;;;4974197;28;20066;-58
2022/05/03 03:15:54;;;;;;;3.83;1.60;;;;;;;;;;4967834;28;20119;-58
2022/05/03 03:18:23;;;;;;;2.73;1.37;;;;;;;;;;4968409;28;20053;-59
2022/05/03 03:20:54;;;;;;;2.88;1.40;;;;;;;;;;4947955;28;20059;-58
2022/05/03 03:23:21;;;;;;;2.25;1.35;;;;;;;;;;4979506;28;20078;-59
2022/05/03 03:25:48;;;;;;;2.60;1.40;;;;;;;;;;4962977;28;20058;-58
2022/05/03 03:28:17;;;;;;;3.75;1.42;;;;;;;;;;4968678;28;20454;-58
2022/05/03 03:30:44;;;;;;;2.83;1.30;;;;;;;;;;4995432;28;20047;-58
2022/05/03 03:33:13;;;;;;;3.35;1.42;;;;;;;;;;4969142;28;20054;-58
2022/05/03 03:35:40;;;;;;;2.58;1.50;;;;;;;;;;4963931;28;20062;-58
2022/05/03 03:38:08;;;;;;;5.45;1.63;;;;;;;;;;4981358;28;20081;-59
2022/05/03 03:40:35;;;;;;;3.35;1.52;;;;;;;;;;4982120;28;20073;-58
2022/05/03 03:43:01;;;;;;;3.00;1.45;;;;;;;;;;4986824;28;20050;-58
2022/05/03 03:45:28;;;;;;;2.92;1.45;;;;;;;;;;4969809;28;20062;-58
2022/05/03 03:47:55;;;;;;;3.92;1.80;;;;;;;;;;4983601;28;20496;-58
2022/05/03 03:50:25;;;;;;;2.88;1.50;;;;;;;;;;4967264;28;20051;-58
2022/05/03 03:52:52;;;;;;;4.40;1.52;;;;;;;;;;4983121;28;20055;-59
2022/05/03 03:55:20;;;;;;;4.57;1.58;;;;;;;;;;5003648;28;20124;-58
2022/05/03 03:57:47;;;;;;;2.90;1.40;;;;;;;;;;4965243;28;20059;-58
2022/05/03 04:00:15;;;;;;;2.60;1.45;;;;;;;;;;4967825;28;20051;-58
2022/05/03 04:02:42;;;;;;;3.77;1.70;;;;;;;;;;4959812;28;20122;-58
2022/05/03 04:05:14;;;;;;;3.33;1.63;;;;;;;;;;4968170;28;20051;-58
2022/05/03 04:07:41;;;;;;;3.65;1.58;;;;;;;;;;4961627;28;20059;-58
2022/05/03 04:10:08;;;;;;;3.65;1.58;;;;;;;;;;4962461;28;20087;-57
2022/05/03 04:12:36;;;;;;;2.53;1.42;;;;;;;;;;4960139;28;20129;-58
2022/05/03 04:15:02;;;;;;;3.13;1.55;;;;;;;;;;4968616;28;20046;-58
2022/05/03 04:17:29;;;;;;;3.10;1.75;;;;;;;;;;4962836;28;20137;-58
2022/05/03 04:19:56;;;;;;;2.97;1.52;;;;;;;;;;4974121;28;20058;-58
2022/05/03 04:22:27;;;;;;;7.60;1.95;;;;;;;;;;4986403;28;20058;-59
2022/05/03 04:24:54;;;;;;;3.45;1.55;;;;;;;;;;5005892;28;20051;-58
2022/05/03 04:27:20;;;;;;;8.27;2.35;;;;;;;;;;4984583;28;20046;-59
2022/05/03 04:29:48;;;;;;;3.40;1.63;;;;;;;;;;4989476;28;20081;-58
2022/05/03 04:32:15;;;;;;;4.28;1.63;;;;;;;;;;4966503;28;20097;-58
2022/05/03 04:34:42;;;;;;;4.25;1.88;;;;;;;;;;4991055;28;20057;-58
2022/05/03 04:37:09;;;;;;;3.28;1.42;;;;;;;;;;5001380;28;20101;-59
2022/05/03 04:39:35;;;;;;;6.47;1.83;;;;;;;;;;5005218;28;20075;-58
2022/05/03 04:42:02;;;;;;;6.32;1.60;;;;;;;;;;4987642;28;20038;-58
2022/05/03 04:44:29;;;;;;;4.95;1.90;;;;;;;;;;4965395;28;20074;-58
2022/05/03 04:46:57;;;;;;;4.57;1.90;;;;;;;;;;4971061;28;20054;-58
2022/05/03 04:49:23;;;;;;;3.97;1.88;;;;;;;;;;4953229;28;20066;-58
2022/05/03 04:51:50;;;;;;;3.15;1.63;;;;;;;;;;4964240;28;20054;-58
2022/05/03 04:54:17;;;;;;;10.43;2.83;;;;;;;;;;4957910;28;20066;-58
2022/05/03 04:56:47;;;;;;;4.10;1.88;;;;;;;;;;4969825;28;20054;-58
2022/05/03 04:59:13;;;;;;;6.03;2.58;;;;;;;;;;4979304;28;20129;-57
2022/05/03 05:01:40;;;;;;;5.05;2.30;;;;;;;;;;4967119;28;20054;-57
2022/05/03 05:04:08;;;;;;;4.90;2.22;;;;;;;;;;4956084;28;20058;-58
2022/05/03 05:06:35;;;;;;;4.25;1.70;;;;;;;;;;4967161;28;20315;-58
2022/05/03 05:09:02;;;;;;;5.85;1.90;;;;;;;;;;4957361;28;20062;-58
2022/05/03 05:11:28;;;;;;;4.05;1.95;;;;;;;;;;4983776;28;20133;-59
2022/05/03 05:13:55;;;;;;;3.75;1.70;;;;;;;;;;4956874;28;20058;-58
2022/05/03 05:16:21;;;;;;;3.65;1.80;;;;;;;;;;4980958;28;20133;-58
2022/05/03 05:18:48;;;;;;;4.03;1.90;;;;;;;;;;4966381;28;20059;-58
2022/05/03 05:21:16;;;;;;;5.10;1.80;;;;;;;;;;4950713;28;20062;-58
2022/05/03 05:23:43;;;;;;;4.20;2.00;;;;;;;;;;4966635;28;20047;-58
2022/05/03 05:26:09;;;;;;;6.40;2.85;;;;;;;;;;4957244;28;20116;-58
2022/05/03 05:28:36;;;;;;;4.97;2.15;;;;;;;;;;5007548;28;20054;-58
2022/05/03 05:31:02;;;;;;;6.78;2.50;;;;;;;;;;4980396;28;20078;-58
2022/05/03 05:33:29;;;;;;;4.38;1.95;;;;;;;;;;4976737;28;20061;-58
2022/05/03 05:35:56;;;;;;;4.88;2.40;;;;;;;;;;5003716;28;20074;-58
2022/05/03 05:38:24;;;;;;;7.32;2.60;;;;;;;;;;4972220;28;20050;-58
2022/05/03 05:40:52;;;;;;;4.55;2.08;;;;;;;;;;5006162;28;20062;-58
2022/05/03 05:43:18;;;;;;;6.47;2.40;;;;;;;;;;4996709;28;20070;-58
2022/05/03 05:45:45;;;;;;;6.25;2.67;;;;;;;;;;4990133;28;20307;-58
2022/05/03 05:48:13;;;;;;;4.80;2.05;;;;;;;;;;4981022;28;20063;-58
2022/05/03 05:50:40;;;;;;;4.97;2.38;;;;;;;;;;4961645;28;20051;-58
2022/05/03 05:55:52;;;;;;;6.38;2.90;;;;;;;;;;4960757;28;20145;-58
2022/05/03 05:58:19;;;;;;;4.88;2.40;;;;;;;;;;5000661;28;20074;-58
2022/05/03 06:00:46;;;;;;;11.05;3.10;;;;;;;;;;4978930;28;20069;-58
2022/05/03 06:03:14;;;;;;;11.88;4.57;;;;;;;;;;4975428;28;20097;-58
2022/05/03 06:05:41;;;;;;;5.72;2.38;;;;;;;;;;4997625;28;20060;-58
2022/05/03 06:08:08;;;;;;;5.90;2.55;;;;;;;;;;4962296;28;20062;-57
2022/05/03 06:10:35;;;;;;;5.40;2.50;;;;;;;;;;4980046;28;20065;-58
2022/05/03 06:13:03;;;;;;;4.78;2.20;;;;;;;;;;4977430;28;20054;-58
2022/05/03 06:15:30;;;;;;;9.05;2.20;;;;;;;;;;4986795;28;20149;-58
2022/05/03 06:17:57;;;;;;;5.18;1.88;;;;;;;;;;4960594;28;20121;-58
2022/05/03 06:20:23;;;;;;;5.75;2.22;;;;;;;;;;5000073;28;20061;-57
2022/05/03 06:22:51;;;;;;;7.50;2.30;;;;;;;;;;5001107;28;20055;-58
2022/05/03 06:25:18;;;;;;;6.22;2.58;;;;;;;;;;4962369;28;20065;-58
2022/05/03 06:27:44;;;;;;;4.47;1.77;;;;;;;;;;4968413;28;20058;-58
2022/05/03 06:30:13;;;;;;;4.93;2.08;;;;;;;;;;4978658;28;20055;-58
2022/05/03 06:32:43;;;;;;;6.05;1.92;;;;;;;;;;4984366;28;20094;-57
2022/05/03 06:35:11;;;;;;;7.45;2.53;;;;;;;;;;4963256;28;20137;-59
2022/05/03 06:37:38;;;;;;;4.03;1.65;;;;;;;;;;4984931;28;20065;-57
2022/05/03 06:40:07;;;;;;;7.45;3.38;;;;;;;;;;4960616;28;20051;-57
2022/05/03 06:42:35;;;;;;;13.35;5.10;;;;;;;;;;4984588;28;20058;-58
2022/05/03 06:45:02;;;;;;;7.35;3.25;;;;;;;;;;4977138;28;20046;-58
2022/05/03 06:47:30;;;;;;;4.00;1.80;;;;;;;;;;4984755;28;20057;-58
2022/05/03 06:49:56;;;;;;;3.47;1.90;;;;;;;;;;4979523;28;20051;-58
2022/05/03 06:52:23;;;;;;;2.88;1.60;;;;;;;;;;4984432;28;20046;-58
2022/05/03 06:54:50;;;;;;;6.90;3.22;;;;;;;;;;4963171;28;20074;-58
2022/05/03 06:57:16;;;;;;;8.35;3.50;;;;;;;;;;4984013;28;20153;-58
2022/05/03 06:59:43;;;;;;;5.68;2.80;;;;;;;;;;4976212;28;20058;-57
2022/05/03 07:02:10;;;;;;;5.68;1.90;;;;;;;;;;4961396;28;20065;-57
2022/05/03 07:04:38;;;;;;;7.68;2.35;;;;;;;;;;4979392;28;20057;-58
2022/05/03 07:07:05;;;;;;;10.77;3.08;;;;;;;;;;4948531;28;20150;-58
2022/05/03 07:09:31;;;;;;;7.43;3.13;;;;;;;;;;4948848;28;20108;-58
2022/05/03 07:12:16;;;;;;;9.60;3.85;;;;;;;;;;5118354;27;20454;-59
2022/05/03 07:14:43;;;;;;;8.00;3.60;;;;;;;;;;5063570;28;20063;-59
2022/05/03 07:22:45;;;;;;;7.38;2.50;;;;;;;;;;5057587;28;20502;-59
2022/05/03 07:22:47;;;;;;;9.90;3.92;;;;;;;;;;5045824;28;20053;-59
2022/05/03 07:25:17;;;;;;;5.95;2.78;;;;;;;;;;5045977;28;20057;-59
2022/05/03 07:27:46;;;;;;;10.77;3.15;;;;;;;;;;5054437;28;20049;-59
2022/05/03 07:30:14;;;;;;;4.95;2.30;;;;;;;;;;5044812;28;20057;-60
2022/05/03 07:32:40;;;;;;;9.82;3.60;;;;;;;;;;5051020;28;20053;-60
2022/05/03 07:35:07;;;;;;;6.75;3.58;;;;;;;;;;5048162;28;20053;-59
2022/05/03 07:37:34;;;;;;;7.75;3.75;;;;;;;;;;5049765;28;20057;-59
2022/05/03 07:40:00;;;;;;;7.93;3.60;;;;;;;;;;5060737;28;20049;-59
2022/05/03 07:42:27;;;;;;;9.20;3.50;;;;;;;;;;5037691;28;20473;-59
2022/05/03 07:44:55;;;;;;;12.25;4.18;;;;;;;;;;5060144;28;20041;-59
2022/05/03 07:47:22;;;;;;;14.15;4.07;;;;;;;;;;5054434;28;20491;-59
2022/05/03 07:49:48;;;;;;;8.80;4.10;;;;;;;;;;5043529;28;20056;-59
2022/05/03 07:52:15;;;;;;;8.20;3.35;;;;;;;;;;5037758;28;20053;-59
2022/05/03 07:54:42;;;;;;;9.82;3.78;;;;;;;;;;5059763;28;20069;-60
2022/05/03 07:57:10;;;;;;;7.88;3.25;;;;;;;;;;5036936;28;20045;-60
2022/05/03 07:59:36;;;;;;;6.40;3.17;;;;;;;;;;5043194;28;20053;-59
2022/05/03 08:02:05;;;;;;;8.82;3.30;;;;;;;;;;5053495;28;20144;-59
2022/05/03 08:04:31;;;;;;;8.77;3.72;;;;;;;;;;5060202;28;20049;-59
2022/05/03 08:06:58;;;;;;;7.60;3.90;;;;;;;;;;5043907;28;20084;-59
2022/05/03 08:09:25;;;;;;;7.38;3.45;;;;;;;;;;5040546;28;20053;-59
2022/05/03 08:11:53;;;;;;;8.82;4.40;;;;;;;;;;5042373;28;20065;-59
2022/05/03 08:14:20;;;;;;;5.90;2.70;;;;;;;;;;5020118;28;20053;-59
2022/05/03 08:16:46;;;;;;;4.95;2.35;;;;;;;;;;5042864;28;20064;-59
2022/05/03 08:19:14;;;;;;;26.33;9.88;;;;;;;;;;5022014;28;20049;-59
2022/05/03 08:21:42;;;;;;;16.65;7.38;;;;;;;;;;5040073;28;20392;-59
2022/05/03 08:24:08;;;;;;;9.43;3.97;;;;;;;;;;5038128;28;20049;-59
2022/05/03 08:26:35;;;;;;;6.63;3.42;;;;;;;;;;5029811;28;20060;-59
2022/05/03 08:29:04;;;;;;;7.97;3.30;;;;;;;;;;5014548;28;20054;-59
2022/05/03 08:31:31;;;;;;;9.05;3.60;;;;;;;;;;5046916;28;20430;-60
2022/05/03 08:34:01;;;;;;;10.93;4.07;;;;;;;;;;5023366;28;20042;-59
2022/05/03 08:36:30;;;;;;;11.15;4.60;;;;;;;;;;5029726;28;20499;-59
2022/05/03 08:44:24;;;;;;;14.57;6.05;;;;;;;;;;4999514;28;20098;-59
2022/05/03 08:46:51;;;;;;;10.20;4.05;;;;;;;;;;5046347;28;20565;-59
2022/05/03 08:49:21;;;;;;;7.15;3.13;;;;;;;;;;5023218;28;20617;-59
2022/05/03 08:51:50;;;;;;;13.05;5.95;;;;;;;;;;5046403;28;20057;-59
2022/05/03 08:54:17;;;;;;;14.50;6.45;;;;;;;;;;5039596;28;20135;-59
2022/05/03 08:56:44;;;;;;;16.83;6.55;;;;;;;;;;5029501;28;20061;-59
2022/05/03 08:59:10;;;;;;;14.13;5.85;;;;;;;;;;5039398;28;20049;-59
2022/05/03 09:01:37;;;;;;;10.88;4.45;;;;;;;;;;5029402;28;20065;-59
2022/05/03 09:04:04;;;;;;;11.80;4.60;;;;;;;;;;5017676;28;20068;-60
2022/05/03 09:06:45;;;;;;;11.23;5.60;;;;;;;;;;5039816;28;20158;-59
2022/05/03 09:09:14;;;;;;;11.27;5.93;;;;;;;;;;5042830;28;20514;-59
2022/05/03 09:11:45;;;;;;;10.93;4.50;;;;;;;;;;5037944;28;20100;-60
2022/05/03 09:14:12;;;;;;;9.63;5.07;;;;;;;;;;5043794;28;20060;-59
2022/05/03 09:16:47;;;;;;;11.07;5.40;;;;;;;;;;5021065;28;20053;-60
2022/05/03 09:19:22;;;;;;;12.05;6.35;;;;;;;;;;5042526;28;20706;-60
2022/05/03 09:24:49;;;;;;;16.88;7.38;;;;;;;;;;5042392;28;20060;-59
2022/05/03 09:27:20;;;;;;;14.57;8.20;;;;;;;;;;5036396;28;20056;-60
2022/05/03 09:29:59;;;;;;;10.32;4.28;;;;;;;;;;5043071;28;20057;-60
2022/05/03 09:32:40;;;;;;;13.75;6.95;;;;;;;;;;5037416;28;20059;-60
2022/05/03 09:35:07;;;;;;;17.63;7.57;;;;;;;;;;5043296;28;20057;-61
2022/05/03 09:37:40;;;;;;;19.02;9.13;;;;;;;;;;5037346;28;20060;-61
2022/05/03 09:40:08;;;;;;;16.10;8.02;;;;;;;;;;5043646;28;20097;-60
2022/05/03 09:42:37;;;;;;;17.60;8.07;;;;;;;;;;5037559;28;20049;-60
2022/05/03 09:45:05;;;;;;;14.25;6.40;;;;;;;;;;5044477;28;20142;-60
2022/05/03 09:47:33;;;;;;;9.80;4.00;;;;;;;;;;5037316;28;20056;-59
2022/05/03 09:50:00;;;;;;;8.35;3.85;;;;;;;;;;5043026;28;20092;-60
2022/05/03 09:52:29;;;;;;;11.82;4.72;;;;;;;;;;5021328;28;20067;-60
2022/05/03 09:54:59;;;;;;;18.77;7.63;;;;;;;;;;5043659;28;20080;-60
2022/05/03 09:57:26;;;;;;;13.10;6.03;;;;;;;;;;5037702;28;20087;-60
2022/05/03 09:59:55;;;;;;;14.48;6.78;;;;;;;;;;5043267;28;20061;-59
2022/05/03 10:02:23;;;;;;;14.55;6.95;;;;;;;;;;5037694;28;20051;-60
2022/05/03 10:04:50;;;;;;;17.13;8.20;;;;;;;;;;5043720;28;20072;-60
2022/05/03 10:07:17;;;;;;;10.70;4.25;;;;;;;;;;5020077;28;20061;-59
2022/05/03 10:09:44;;;;;;;12.57;6.72;;;;;;;;;;5059473;28;20049;-59
2022/05/03 10:12:18;;;;;;;13.38;6.95;;;;;;;;;;5037096;28;20099;-60
2022/05/03 10:14:45;;;;;;;13.82;6.47;;;;;;;;;;5044794;28;20053;-60
2022/05/03 10:23:00;;;;;;;11.88;4.35;;;;;;;;;;4993534;28;20046;-59
2022/05/03 10:25:49;;;;;;;18.02;7.35;;;;;;;;;;4985886;28;20054;-59
2022/05/03 10:28:16;;;;;;;12.85;5.65;;;;;;;;;;4995265;28;20061;-60
2022/05/03 10:30:59;;;;;;;11.85;5.32;;;;;;;;;;5026899;28;20065;-60
2022/05/03 10:33:41;;;;;;;11.60;5.78;;;;;;;;;;5036323;28;20057;-59
2022/05/03 10:36:26;;;;;;;12.73;6.22;;;;;;;;;;5044318;28;20064;-59
2022/05/03 10:38:52;;;;;;;15.10;7.45;;;;;;;;;;5017406;28;20096;-60
2022/05/03 10:41:23;;;;;;;12.07;6.43;;;;;;;;;;5052004;28;20053;-60
2022/05/03 10:43:50;;;;;;;16.58;5.85;;;;;;;;;;5036410;28;20140;-60
2022/05/03 10:46:20;;;;;;;13.85;6.60;;;;;;;;;;5042427;28;20050;-60
2022/05/03 10:49:04;;;;;;;11.18;4.13;;;;;;;;;;5035311;28;20053;-60
2022/05/03 10:51:31;;;;;;;15.13;6.50;;;;;;;;;;5025746;28;20108;-60
2022/05/03 10:53:59;;;;;;;15.13;6.93;;;;;;;;;;4999373;28;20050;-60
2022/05/03 10:56:25;;;;;;;11.23;5.30;;;;;;;;;;5023043;28;20049;-61
2022/05/03 10:59:10;;;;;;;14.93;6.53;;;;;;;;;;5017298;28;20053;-60
2022/05/03 11:04:35;;;;;;;14.27;7.32;;;;;;;;;;4998648;28;20049;-60
2022/05/03 11:07:01;;;;;;;13.27;5.72;;;;;;;;;;5033298;28;20080;-60
2022/05/03 11:09:29;;;;;;;11.43;5.65;;;;;;;;;;5024781;28;20053;-60
2022/05/03 11:11:57;;;;;;;15.07;7.13;;;;;;;;;;5034584;28;20058;-60
2022/05/03 11:14:42;;;;;;;13.70;6.30;;;;;;;;;;5035349;28;20061;-60
2022/05/03 11:17:10;;;;;;;11.13;5.45;;;;;;;;;;5041885;28;20123;-59
2022/05/03 11:19:40;;;;;;;12.07;5.90;;;;;;;;;;5037055;28;20147;-60
2022/05/03 11:22:10;;;;;;;10.50;4.90;;;;;;;;;;5041644;28;20064;-61
2022/05/03 11:24:41;;;;;;;11.43;5.65;;;;;;;;;;5042136;28;20049;-60
2022/05/03 11:27:09;;;;;;;10.63;5.28;;;;;;;;;;5023517;28;20068;-60
2022/05/03 11:29:37;;;;;;;14.80;5.50;;;;;;;;;;5038906;28;20054;-60
2022/05/03 11:32:06;;;;;;;11.35;5.25;;;;;;;;;;5016376;28;20057;-60
2022/05/03 11:34:32;;;;;;;;;;;;;;;;;;5038638;28;20061;-60
2022/05/03 11:37:01;;;;;;;11.95;5.75;;;;;;;;;;5035900;28;19920;-60
2022/05/03 11:39:28;;;;;;;16.20;6.90;;;;;;;;;;5043040;28;20053;-60
2022/05/03 11:41:55;;;;;;;11.57;5.82;;;;;;;;;;5020445;28;20049;-60
2022/05/03 11:44:22;;;;;;;11.82;5.68;;;;;;;;;;5040819;28;20057;-60
2022/05/03 11:46:49;;;;;;;8.32;4.15;;;;;;;;;;5035846;28;20045;-60
2022/05/03 11:49:17;;;;;;;12.75;6.25;;;;;;;;;;5041995;28;20151;-60
2022/05/03 11:57:16;;;;;;;10.95;4.75;;;;;;;;;;5016861;28;20066;-60
2022/05/03 11:59:43;;;;;;;8.07;4.20;;;;;;;;;;5010877;28;20141;-60
2022/05/03 12:02:14;;;;;;;7.80;4.25;;;;;;;;;;5007945;28;20065;-60
2022/05/03 12:04:56;;;;;;;8.82;3.58;;;;;;;;;;5042218;28;20111;-60
2022/05/03 12:07:23;;;;;;;9.45;4.80;;;;;;;;;;5033792;28;20080;-60
2022/05/03 12:09:51;;;;;;;10.55;4.53;;;;;;;;;;5041048;28;20057;-60
2022/05/03 12:15:12;;;;;;;9.82;4.55;;;;;;;;;;4983251;28;20046;-60
2022/05/03 12:17:51;;;;;;;11.40;5.28;;;;;;;;;;4997266;28;20054;-61
2022/05/03 12:20:18;;;;;;;8.15;3.60;;;;;;;;;;4984612;28;20127;-60
2022/05/03 12:22:45;;;;;;;8.80;3.53;;;;;;;;;;5000373;28;20042;-61
2022/05/03 12:25:26;;;;;;;8.07;3.53;;;;;;;;;;5005588;28;20050;-60
2022/05/03 12:27:52;;;;;;;9.65;4.65;;;;;;;;;;5016121;28;20085;-60
2022/05/03 12:30:19;;;;;;;9.18;4.05;;;;;;;;;;5013760;28;20050;-60
2022/05/03 12:32:48;;;;;;;9.27;4.72;;;;;;;;;;4998611;28;20058;-61
2022/05/03 12:35:15;;;;;;;12.48;4.22;;;;;;;;;;5022270;28;20078;-60
2022/05/03 12:37:50;;;;;;;8.20;3.67;;;;;;;;;;5000057;28;20133;-60
2022/05/03 12:40:26;;;;;;;8.85;4.30;;;;;;;;;;5021523;28;20053;-60
2022/05/03 12:42:52;;;;;;;11.05;5.55;;;;;;;;;;4997885;28;20062;-60
2022/05/03 12:45:20;;;;;;;15.38;7.25;;;;;;;;;;4989188;28;20113;-60
2022/05/03 12:47:48;;;;;;;24.80;11.10;;;;;;;;;;4989897;28;20042;-61
2022/05/03 12:50:15;;;;;;;26.55;10.43;;;;;;;;;;4983686;28;20046;-61
2022/05/03 12:52:42;;;;;;;23.95;10.98;;;;;;;;;;4989402;28;20042;-61
2022/05/03 12:55:09;;;;;;;23.88;11.80;;;;;;;;;;5000094;28;20065;-60
2022/05/03 13:00:21;;;;;;;22.08;9.10;;;;;;;;;;5015121;28;20053;-60
2022/05/03 13:02:49;;;;;;;23.27;10.15;;;;;;;;;;4988338;28;20070;-61
2022/05/03 13:05:15;;;;;;;25.00;11.80;;;;;;;;;;4981615;28;20050;-60
2022/05/03 13:07:42;;;;;;;15.65;7.20;;;;;;;;;;4985304;28;20063;-61
2022/05/03 13:10:08;;;;;;;24.70;9.60;;;;;;;;;;4986608;28;20089;-62
2022/05/03 13:12:37;;;;;;;17.45;8.73;;;;;;;;;;5035336;28;20053;-61
2022/05/03 13:15:04;;;;;;;21.65;9.75;;;;;;;;;;5030762;28;20054;-60
2022/05/03 13:17:30;;;;;;;20.55;8.65;;;;;;;;;;5047093;28;20053;-60
2022/05/03 13:19:57;;;;;;;23.73;10.88;;;;;;;;;;5038074;28;20095;-60
2022/05/03 13:22:24;;;;;;;25.73;10.18;;;;;;;;;;5027764;28;20126;-60
2022/05/03 13:24:50;;;;;;;21.63;9.40;;;;;;;;;;5022066;28;20056;-60
2022/05/03 13:27:17;;;;;;;21.63;9.88;;;;;;;;;;5040044;28;20057;-60
2022/05/03 13:29:45;;;;;;;18.60;8.88;;;;;;;;;;5026468;28;20050;-60
2022/05/03 13:32:12;;;;;;;18.05;7.88;;;;;;;;;;5032399;28;20100;-60
2022/05/03 13:34:38;;;;;;;21.85;9.60;;;;;;;;;;5009939;28;20050;-60
2022/05/03 13:42:33;;;;;;;25.85;10.93;;;;;;;;;;5043276;28;20061;-60
2022/05/03 13:45:01;;;;;;;18.55;7.78;;;;;;;;;;5028146;28;20108;-60
2022/05/03 13:47:30;;;;;;;24.75;8.55;;;;;;;;;;5037757;28;20119;-60
2022/05/03 13:49:56;;;;;;;19.77;9.13;;;;;;;;;;5045996;28;20072;-60
2022/05/03 13:52:26;;;;;;;25.75;11.95;;;;;;;;;;5037974;28;20152;-60
2022/05/03 13:54:53;;;;;;;23.27;10.07;;;;;;;;;;5037848;28;20049;-60
2022/05/03 13:57:19;;;;;;;27.63;11.20;;;;;;;;;;5001762;28;20058;-60
2022/05/03 13:59:46;;;;;;;20.88;8.95;;;;;;;;;;5041348;28;20093;-60
2022/05/03 14:02:15;;;;;;;19.85;8.52;;;;;;;;;;5037936;28;20063;-60
2022/05/03 14:04:42;;;;;;;27.33;11.88;;;;;;;;;;5031385;28;20150;-60
2022/05/03 14:07:09;;;;;;;21.33;9.18;;;;;;;;;;5009312;28;20053;-60
2022/05/03 14:09:36;;;;;;;31.98;10.07;;;;;;;;;;5022015;28;20054;-60
2022/05/03 14:12:04;;;;;;;22.20;9.02;;;;;;;;;;5015160;28;20156;-60
2022/05/03 14:14:30;;;;;;;23.00;7.63;;;;;;;;;;5006665;28;20053;-60
2022/05/03 14:16:57;;;;;;;17.50;8.50;;;;;;;;;;5036073;28;20049;-60
2022/05/03 14:19:26;;;;;;;23.02;9.15;;;;;;;;;;5041331;28;20072;-60
2022/05/03 14:21:54;;;;;;;19.83;7.53;;;;;;;;;;5036286;28;20045;-60
2022/05/03 14:24:21;;;;;;;15.68;6.43;;;;;;;;;;5025541;28;20045;-60
2022/05/03 14:26:47;;;;;;;16.27;7.40;;;;;;;;;;5029376;28;20111;-61
2022/05/03 14:29:14;;;;;;;19.23;8.90;;;;;;;;;;5024723;28;20095;-60
2022/05/03 14:31:40;;;;;;;18.02;7.43;;;;;;;;;;5042761;28;20053;-60
2022/05/03 14:34:08;;;;;;;14.73;6.93;;;;;;;;;;5018984;28;20073;-60
2022/05/03 14:36:36;;;;;;;21.87;7.60;;;;;;;;;;5031087;28;20053;-60
2022/05/03 14:39:03;;;;;;;16.92;7.15;;;;;;;;;;5016580;28;20114;-60
2022/05/03 14:41:30;;;;;;;17.95;7.28;;;;;;;;;;5022938;28;20058;-60
2022/05/03 14:43:57;;;;;;;15.85;7.05;;;;;;;;;;5017187;28;20061;-60
2022/05/03 14:46:24;;;;;;;17.38;7.70;;;;;;;;;;5026498;28;20167;-61
2022/05/03 14:48:50;;;;;;;18.15;7.13;;;;;;;;;;5037161;28;20049;-60
2022/05/03 14:51:17;;;;;;;21.90;7.97;;;;;;;;;;5042878;28;20057;-60
2022/05/03 14:53:45;;;;;;;16.88;6.93;;;;;;;;;;5019764;28;20064;-61
2022/05/03 15:04:25;;;;;;;15.88;5.90;;;;;;;;;;5029032;28;20132;-60
2022/05/03 15:06:52;;;;;;;12.18;5.50;;;;;;;;;;5041748;28;20049;-60
2022/05/03 15:09:20;;;;;;;12.73;5.68;;;;;;;;;;5019635;28;20076;-60
2022/05/03 15:11:48;;;;;;;17.30;6.45;;;;;;;;;;5042135;28;20054;-61
2022/05/03 15:14:14;;;;;;;13.93;6.20;;;;;;;;;;5036359;28;20084;-60
2022/05/03 15:16:41;;;;;;;15.13;6.13;;;;;;;;;;5041832;28;20080;-60
2022/05/03 15:19:07;;;;;;;15.27;5.80;;;;;;;;;;5036337;28;20168;-60
2022/05/03 15:21:35;;;;;;;15.50;6.15;;;;;;;;;;5026874;28;20144;-60
2022/05/03 15:26:52;;;;;;;17.23;7.03;;;;;;;;;;5044689;28;20056;-60
2022/05/03 15:29:19;;;;;;;18.60;6.20;;;;;;;;;;5036570;28;20061;-60
2022/05/03 15:31:46;;;;;;;15.35;6.05;;;;;;;;;;5025881;28;20073;-60
2022/05/03 15:34:12;;;;;;;17.77;6.00;;;;;;;;;;5046469;28;20057;-60
2022/05/03 15:36:39;;;;;;;14.90;6.32;;;;;;;;;;5040330;28;20089;-60
2022/05/03 15:39:06;;;;;;;15.68;6.40;;;;;;;;;;5045993;28;20056;-60
2022/05/03 15:41:33;;;;;;;14.25;6.57;;;;;;;;;;5022583;28;20060;-60
2022/05/03 15:44:02;;;;;;;15.07;5.45;;;;;;;;;;5007622;28;20053;-60